sensor_id;sensor_type;location;lat;lon;timestamp;P1;durP1;ratioP1;P2;durP2;ratioP2
68523;SDS011;55524;51.380;13.372;2023-05-20T00:00:08;7.35;;;4.63;;
68523;SDS011;55524;51.380;13.372;2023-05-20T00:02:35;8.50;;;5.47;;
68523;SDS011;55524;51.380;13.372;2023-05-20T00:05:01;5.40;;;4.80;;
68523;SDS011;55524;51.380;13.372;2023-05-20T00:07:28;7.72;;;5.40;;
68523;SDS011;55524;51.380;13.372;2023-05-20T00:09:54;6.22;;;5.05;;
68523;SDS011;55524;51.380;13.372;2023-05-20T00:12:20;7.13;;;5.65;;
68523;SDS011;55524;51.380;13.372;2023-05-20T00:14:47;7.10;;;5.80;;
68523;SDS011;55524;51.380;13.372;2023-05-20T00:17:13;7.80;;;6.05;;
68523;SDS011;55524;51.380;13.372;2023-05-20T00:19:39;6.13;;;5.28;;
68523;SDS011;55524;51.380;13.372;2023-05-20T00:22:05;8.50;;;5.13;;
68523;SDS011;55524;51.380;13.372;2023-05-20T00:24:32;7.88;;;5.60;;
68523;SDS011;55524;51.380;13.372;2023-05-20T00:26:58;5.88;;;5.28;;
68523;SDS011;55524;51.380;13.372;2023-05-20T00:29:24;6.47;;;5.63;;
68523;SDS011;55524;51.380;13.372;2023-05-20T00:31:52;8.02;;;5.75;;
68523;SDS011;55524;51.380;13.372;2023-05-20T00:34:19;10.02;;;6.55;;
68523;SDS011;55524;51.380;13.372;2023-05-20T00:36:45;11.38;;;6.00;;
68523;SDS011;55524;51.380;13.372;2023-05-20T00:39:11;7.93;;;5.97;;
68523;SDS011;55524;51.380;13.372;2023-05-20T00:41:37;11.52;;;6.68;;
68523;SDS011;55524;51.380;13.372;2023-05-20T00:44:04;7.78;;;6.00;;
68523;SDS011;55524;51.380;13.372;2023-05-20T00:46:31;6.80;;;6.03;;
68523;SDS011;55524;51.380;13.372;2023-05-20T00:48:57;9.27;;;5.85;;
68523;SDS011;55524;51.380;13.372;2023-05-20T00:51:23;11.82;;;5.95;;
68523;SDS011;55524;51.380;13.372;2023-05-20T00:53:50;10.98;;;6.95;;
68523;SDS011;55524;51.380;13.372;2023-05-20T00:56:16;10.20;;;6.70;;
68523;SDS011;55524;51.380;13.372;2023-05-20T00:58:45;11.23;;;6.75;;
68523;SDS011;55524;51.380;13.372;2023-05-20T01:01:12;8.50;;;6.47;;
68523;SDS011;55524;51.380;13.372;2023-05-20T01:03:38;9.68;;;6.88;;
68523;SDS011;55524;51.380;13.372;2023-05-20T01:06:05;9.07;;;7.63;;
68523;SDS011;55524;51.380;13.372;2023-05-20T01:08:31;13.35;;;7.35;;
68523;SDS011;55524;51.380;13.372;2023-05-20T01:11:07;9.93;;;7.30;;
68523;SDS011;55524;51.380;13.372;2023-05-20T01:14:05;11.90;;;7.00;;
68523;SDS011;55524;51.380;13.372;2023-05-20T01:19:02;10.77;;;7.53;;
68523;SDS011;55524;51.380;13.372;2023-05-20T01:21:38;9.77;;;7.82;;
68523;SDS011;55524;51.380;13.372;2023-05-20T01:24:06;10.50;;;7.28;;
68523;SDS011;55524;51.380;13.372;2023-05-20T01:26:32;9.77;;;7.65;;
68523;SDS011;55524;51.380;13.372;2023-05-20T01:29:02;12.55;;;8.02;;
68523;SDS011;55524;51.380;13.372;2023-05-20T01:31:30;9.85;;;7.80;;
68523;SDS011;55524;51.380;13.372;2023-05-20T01:34:00;10.95;;;7.72;;
68523;SDS011;55524;51.380;13.372;2023-05-20T01:36:28;10.18;;;7.15;;
68523;SDS011;55524;51.380;13.372;2023-05-20T01:38:55;14.68;;;7.95;;
68523;SDS011;55524;51.380;13.372;2023-05-20T01:41:23;14.98;;;8.20;;
68523;SDS011;55524;51.380;13.372;2023-05-20T01:43:51;8.55;;;7.28;;
68523;SDS011;55524;51.380;13.372;2023-05-20T01:46:17;10.88;;;7.50;;
68523;SDS011;55524;51.380;13.372;2023-05-20T01:48:44;12.43;;;7.18;;
68523;SDS011;55524;51.380;13.372;2023-05-20T01:51:10;11.23;;;7.50;;
68523;SDS011;55524;51.380;13.372;2023-05-20T01:53:36;12.90;;;7.50;;
68523;SDS011;55524;51.380;13.372;2023-05-20T01:56:04;13.93;;;7.50;;
68523;SDS011;55524;51.380;13.372;2023-05-20T01:58:30;12.20;;;8.23;;
68523;SDS011;55524;51.380;13.372;2023-05-20T02:00:56;12.48;;;7.72;;
68523;SDS011;55524;51.380;13.372;2023-05-20T02:03:23;10.35;;;7.95;;
68523;SDS011;55524;51.380;13.372;2023-05-20T02:05:49;9.18;;;7.35;;
68523;SDS011;55524;51.380;13.372;2023-05-20T02:08:15;9.25;;;6.97;;
68523;SDS011;55524;51.380;13.372;2023-05-20T02:10:42;11.77;;;7.75;;
68523;SDS011;55524;51.380;13.372;2023-05-20T02:13:08;11.13;;;6.72;;
68523;SDS011;55524;51.380;13.372;2023-05-20T02:15:34;9.25;;;7.43;;
68523;SDS011;55524;51.380;13.372;2023-05-20T02:18:05;10.23;;;7.60;;
68523;SDS011;55524;51.380;13.372;2023-05-20T02:20:47;11.93;;;7.47;;
68523;SDS011;55524;51.380;13.372;2023-05-20T02:25:40;10.60;;;7.60;;
68523;SDS011;55524;51.380;13.372;2023-05-20T02:28:07;9.10;;;7.47;;
68523;SDS011;55524;51.380;13.372;2023-05-20T02:30:35;12.70;;;7.18;;
68523;SDS011;55524;51.380;13.372;2023-05-20T02:33:02;11.90;;;8.18;;
68523;SDS011;55524;51.380;13.372;2023-05-20T02:35:29;10.13;;;8.00;;
68523;SDS011;55524;51.380;13.372;2023-05-20T02:37:55;11.55;;;7.88;;
68523;SDS011;55524;51.380;13.372;2023-05-20T02:40:21;10.52;;;8.10;;
68523;SDS011;55524;51.380;13.372;2023-05-20T02:42:47;12.55;;;7.82;;
68523;SDS011;55524;51.380;13.372;2023-05-20T02:45:14;10.18;;;8.30;;
68523;SDS011;55524;51.380;13.372;2023-05-20T02:47:40;11.63;;;7.85;;
68523;SDS011;55524;51.380;13.372;2023-05-20T02:50:06;13.80;;;8.35;;
68523;SDS011;55524;51.380;13.372;2023-05-20T02:52:33;9.90;;;7.90;;
68523;SDS011;55524;51.380;13.372;2023-05-20T02:55:00;12.63;;;7.50;;
68523;SDS011;55524;51.380;13.372;2023-05-20T02:57:26;10.35;;;8.13;;
68523;SDS011;55524;51.380;13.372;2023-05-20T02:59:53;9.90;;;7.95;;
68523;SDS011;55524;51.380;13.372;2023-05-20T03:02:20;11.80;;;7.80;;
68523;SDS011;55524;51.380;13.372;2023-05-20T03:04:47;9.73;;;7.95;;
68523;SDS011;55524;51.380;13.372;2023-05-20T03:07:14;11.25;;;8.25;;
68523;SDS011;55524;51.380;13.372;2023-05-20T03:09:43;10.13;;;7.93;;
68523;SDS011;55524;51.380;13.372;2023-05-20T03:12:09;12.63;;;8.40;;
68523;SDS011;55524;51.380;13.372;2023-05-20T03:14:36;13.15;;;8.60;;
68523;SDS011;55524;51.380;13.372;2023-05-20T03:17:02;11.85;;;8.10;;
68523;SDS011;55524;51.380;13.372;2023-05-20T03:19:28;11.25;;;8.20;;
68523;SDS011;55524;51.380;13.372;2023-05-20T03:21:55;9.50;;;8.40;;
68523;SDS011;55524;51.380;13.372;2023-05-20T03:24:22;12.52;;;8.38;;
68523;SDS011;55524;51.380;13.372;2023-05-20T03:26:48;11.85;;;8.52;;
68523;SDS011;55524;51.380;13.372;2023-05-20T03:29:15;10.82;;;8.07;;
68523;SDS011;55524;51.380;13.372;2023-05-20T03:31:42;11.77;;;8.93;;
68523;SDS011;55524;51.380;13.372;2023-05-20T03:34:08;13.35;;;8.20;;
68523;SDS011;55524;51.380;13.372;2023-05-20T03:36:34;12.30;;;8.43;;
68523;SDS011;55524;51.380;13.372;2023-05-20T03:39:01;10.50;;;7.72;;
68523;SDS011;55524;51.380;13.372;2023-05-20T03:41:28;13.02;;;8.82;;
68523;SDS011;55524;51.380;13.372;2023-05-20T03:43:54;11.50;;;9.00;;
68523;SDS011;55524;51.380;13.372;2023-05-20T03:46:21;11.55;;;8.55;;
68523;SDS011;55524;51.380;13.372;2023-05-20T03:48:47;14.07;;;9.20;;
68523;SDS011;55524;51.380;13.372;2023-05-20T03:51:13;12.88;;;8.73;;
68523;SDS011;55524;51.380;13.372;2023-05-20T03:53:40;11.20;;;8.93;;
68523;SDS011;55524;51.380;13.372;2023-05-20T03:56:06;17.27;;;9.93;;
68523;SDS011;55524;51.380;13.372;2023-05-20T03:58:32;12.98;;;9.18;;
68523;SDS011;55524;51.380;13.372;2023-05-20T04:00:59;13.35;;;9.13;;
68523;SDS011;55524;51.380;13.372;2023-05-20T04:03:25;11.80;;;8.98;;
68523;SDS011;55524;51.380;13.372;2023-05-20T04:05:52;12.57;;;9.07;;
68523;SDS011;55524;51.380;13.372;2023-05-20T04:08:19;15.40;;;9.18;;
68523;SDS011;55524;51.380;13.372;2023-05-20T04:10:46;14.63;;;10.15;;
68523;SDS011;55524;51.380;13.372;2023-05-20T04:13:12;11.55;;;9.30;;
68523;SDS011;55524;51.380;13.372;2023-05-20T04:15:40;14.98;;;9.40;;
68523;SDS011;55524;51.380;13.372;2023-05-20T04:18:06;15.20;;;9.90;;
68523;SDS011;55524;51.380;13.372;2023-05-20T04:20:33;13.48;;;9.80;;
68523;SDS011;55524;51.380;13.372;2023-05-20T04:23:00;13.52;;;9.38;;
68523;SDS011;55524;51.380;13.372;2023-05-20T04:25:26;14.77;;;9.80;;
68523;SDS011;55524;51.380;13.372;2023-05-20T04:27:52;16.33;;;10.02;;
68523;SDS011;55524;51.380;13.372;2023-05-20T04:30:18;16.85;;;9.88;;
68523;SDS011;55524;51.380;13.372;2023-05-20T04:32:46;14.63;;;9.93;;
68523;SDS011;55524;51.380;13.372;2023-05-20T04:35:14;16.40;;;10.15;;
68523;SDS011;55524;51.380;13.372;2023-05-20T04:37:41;17.17;;;10.00;;
68523;SDS011;55524;51.380;13.372;2023-05-20T04:40:11;16.33;;;10.07;;
68523;SDS011;55524;51.380;13.372;2023-05-20T04:42:38;14.13;;;9.93;;
68523;SDS011;55524;51.380;13.372;2023-05-20T04:45:05;15.95;;;10.52;;
68523;SDS011;55524;51.380;13.372;2023-05-20T04:47:32;19.75;;;10.77;;
68523;SDS011;55524;51.380;13.372;2023-05-20T04:50:03;17.45;;;11.25;;
68523;SDS011;55524;51.380;13.372;2023-05-20T04:52:30;18.38;;;11.68;;
68523;SDS011;55524;51.380;13.372;2023-05-20T04:54:57;17.77;;;10.65;;
68523;SDS011;55524;51.380;13.372;2023-05-20T04:57:26;19.50;;;10.80;;
68523;SDS011;55524;51.380;13.372;2023-05-20T04:59:52;20.40;;;11.73;;
68523;SDS011;55524;51.380;13.372;2023-05-20T05:02:23;18.80;;;11.15;;
68523;SDS011;55524;51.380;13.372;2023-05-20T05:04:49;16.40;;;12.02;;
68523;SDS011;55524;51.380;13.372;2023-05-20T05:07:16;20.55;;;12.15;;
68523;SDS011;55524;51.380;13.372;2023-05-20T05:09:42;20.67;;;12.10;;
68523;SDS011;55524;51.380;13.372;2023-05-20T05:12:08;19.65;;;12.80;;
68523;SDS011;55524;51.380;13.372;2023-05-20T05:14:34;23.10;;;12.27;;
68523;SDS011;55524;51.380;13.372;2023-05-20T05:17:01;19.25;;;12.70;;
68523;SDS011;55524;51.380;13.372;2023-05-20T05:19:27;19.27;;;12.48;;
68523;SDS011;55524;51.380;13.372;2023-05-20T05:21:54;19.70;;;12.60;;
68523;SDS011;55524;51.380;13.372;2023-05-20T05:24:20;23.20;;;12.60;;
68523;SDS011;55524;51.380;13.372;2023-05-20T05:26:46;23.98;;;13.45;;
68523;SDS011;55524;51.380;13.372;2023-05-20T05:29:17;24.23;;;12.35;;
68523;SDS011;55524;51.380;13.372;2023-05-20T05:31:43;21.38;;;12.77;;
68523;SDS011;55524;51.380;13.372;2023-05-20T05:34:10;24.27;;;12.57;;
68523;SDS011;55524;51.380;13.372;2023-05-20T05:36:38;20.75;;;12.98;;
68523;SDS011;55524;51.380;13.372;2023-05-20T05:39:05;19.15;;;12.48;;
68523;SDS011;55524;51.380;13.372;2023-05-20T05:41:32;23.13;;;13.50;;
68523;SDS011;55524;51.380;13.372;2023-05-20T05:43:58;22.05;;;12.88;;
68523;SDS011;55524;51.380;13.372;2023-05-20T05:46:24;19.52;;;12.55;;
68523;SDS011;55524;51.380;13.372;2023-05-20T05:48:51;25.23;;;13.85;;
68523;SDS011;55524;51.380;13.372;2023-05-20T05:51:17;22.88;;;13.68;;
68523;SDS011;55524;51.380;13.372;2023-05-20T05:53:44;22.48;;;13.38;;
68523;SDS011;55524;51.380;13.372;2023-05-20T05:56:10;21.95;;;13.20;;
68523;SDS011;55524;51.380;13.372;2023-05-20T05:58:37;24.83;;;13.63;;
68523;SDS011;55524;51.380;13.372;2023-05-20T06:01:03;24.13;;;14.50;;
68523;SDS011;55524;51.380;13.372;2023-05-20T06:03:30;21.85;;;13.73;;
68523;SDS011;55524;51.380;13.372;2023-05-20T06:05:56;19.02;;;13.15;;
68523;SDS011;55524;51.380;13.372;2023-05-20T06:08:22;26.15;;;13.52;;
68523;SDS011;55524;51.380;13.372;2023-05-20T06:10:49;21.83;;;14.40;;
68523;SDS011;55524;51.380;13.372;2023-05-20T06:13:16;23.60;;;14.23;;
68523;SDS011;55524;51.380;13.372;2023-05-20T06:15:42;19.30;;;12.45;;
68523;SDS011;55524;51.380;13.372;2023-05-20T06:18:11;23.55;;;13.68;;
68523;SDS011;55524;51.380;13.372;2023-05-20T06:20:37;25.95;;;14.40;;
68523;SDS011;55524;51.380;13.372;2023-05-20T06:23:03;25.40;;;13.93;;
68523;SDS011;55524;51.380;13.372;2023-05-20T06:25:30;22.95;;;13.40;;
68523;SDS011;55524;51.380;13.372;2023-05-20T06:27:56;23.50;;;13.77;;
68523;SDS011;55524;51.380;13.372;2023-05-20T06:30:22;20.77;;;13.93;;
68523;SDS011;55524;51.380;13.372;2023-05-20T06:32:49;23.05;;;14.40;;
68523;SDS011;55524;51.380;13.372;2023-05-20T06:35:15;21.67;;;13.45;;
68523;SDS011;55524;51.380;13.372;2023-05-20T06:37:42;22.60;;;13.98;;
68523;SDS011;55524;51.380;13.372;2023-05-20T06:40:08;26.35;;;14.10;;
68523;SDS011;55524;51.380;13.372;2023-05-20T06:42:36;24.67;;;13.77;;
68523;SDS011;55524;51.380;13.372;2023-05-20T06:45:02;22.10;;;13.07;;
68523;SDS011;55524;51.380;13.372;2023-05-20T06:47:29;25.80;;;14.57;;
68523;SDS011;55524;51.380;13.372;2023-05-20T06:49:55;28.65;;;14.32;;
68523;SDS011;55524;51.380;13.372;2023-05-20T06:52:22;38.70;;;14.88;;
68523;SDS011;55524;51.380;13.372;2023-05-20T06:54:48;26.45;;;14.85;;
68523;SDS011;55524;51.380;13.372;2023-05-20T06:57:14;25.55;;;13.93;;
68523;SDS011;55524;51.380;13.372;2023-05-20T06:59:41;24.98;;;14.40;;
68523;SDS011;55524;51.380;13.372;2023-05-20T07:02:07;26.05;;;13.85;;
68523;SDS011;55524;51.380;13.372;2023-05-20T07:04:35;23.65;;;15.18;;
68523;SDS011;55524;51.380;13.372;2023-05-20T07:07:01;24.92;;;15.52;;
68523;SDS011;55524;51.380;13.372;2023-05-20T07:09:28;32.83;;;15.00;;
68523;SDS011;55524;51.380;13.372;2023-05-20T07:11:54;25.73;;;15.07;;
68523;SDS011;55524;51.380;13.372;2023-05-20T07:14:20;28.10;;;14.40;;
68523;SDS011;55524;51.380;13.372;2023-05-20T07:16:47;28.67;;;14.80;;
68523;SDS011;55524;51.380;13.372;2023-05-20T07:19:13;25.70;;;14.00;;
68523;SDS011;55524;51.380;13.372;2023-05-20T07:21:39;28.02;;;15.25;;
68523;SDS011;55524;51.380;13.372;2023-05-20T07:24:05;28.48;;;14.90;;
68523;SDS011;55524;51.380;13.372;2023-05-20T07:26:32;24.95;;;14.63;;
68523;SDS011;55524;51.380;13.372;2023-05-20T07:29:00;24.60;;;14.88;;
68523;SDS011;55524;51.380;13.372;2023-05-20T07:31:30;25.77;;;14.65;;
68523;SDS011;55524;51.380;13.372;2023-05-20T07:33:57;25.40;;;15.00;;
68523;SDS011;55524;51.380;13.372;2023-05-20T07:36:27;22.65;;;14.98;;
68523;SDS011;55524;51.380;13.372;2023-05-20T07:38:53;29.60;;;16.23;;
68523;SDS011;55524;51.380;13.372;2023-05-20T07:41:20;30.15;;;16.05;;
68523;SDS011;55524;51.380;13.372;2023-05-20T07:43:46;30.73;;;15.13;;
68523;SDS011;55524;51.380;13.372;2023-05-20T07:46:12;25.83;;;14.80;;
68523;SDS011;55524;51.380;13.372;2023-05-20T07:48:40;23.60;;;14.32;;
68523;SDS011;55524;51.380;13.372;2023-05-20T07:51:06;27.17;;;15.02;;
68523;SDS011;55524;51.380;13.372;2023-05-20T07:53:33;25.85;;;14.25;;
68523;SDS011;55524;51.380;13.372;2023-05-20T07:55:59;22.25;;;14.23;;
68523;SDS011;55524;51.380;13.372;2023-05-20T07:58:26;24.77;;;15.35;;
68523;SDS011;55524;51.380;13.372;2023-05-20T08:00:53;23.95;;;14.48;;
68523;SDS011;55524;51.380;13.372;2023-05-20T08:03:19;23.35;;;14.65;;
68523;SDS011;55524;51.380;13.372;2023-05-20T08:05:46;26.08;;;14.35;;
68523;SDS011;55524;51.380;13.372;2023-05-20T08:08:12;23.52;;;14.85;;
68523;SDS011;55524;51.380;13.372;2023-05-20T08:10:40;23.02;;;14.75;;
68523;SDS011;55524;51.380;13.372;2023-05-20T08:13:06;24.25;;;15.70;;
68523;SDS011;55524;51.380;13.372;2023-05-20T08:15:32;24.17;;;14.68;;
68523;SDS011;55524;51.380;13.372;2023-05-20T08:18:00;22.48;;;14.95;;
68523;SDS011;55524;51.380;13.372;2023-05-20T08:20:27;30.88;;;15.93;;
68523;SDS011;55524;51.380;13.372;2023-05-20T08:22:54;32.90;;;16.00;;
68523;SDS011;55524;51.380;13.372;2023-05-20T08:25:21;26.83;;;16.02;;
68523;SDS011;55524;51.380;13.372;2023-05-20T08:27:47;67.97;;;18.27;;
68523;SDS011;55524;51.380;13.372;2023-05-20T08:30:14;23.33;;;14.90;;
68523;SDS011;55524;51.380;13.372;2023-05-20T08:32:40;22.15;;;14.98;;
68523;SDS011;55524;51.380;13.372;2023-05-20T08:35:06;22.77;;;15.05;;
68523;SDS011;55524;51.380;13.372;2023-05-20T08:37:33;25.20;;;15.20;;
68523;SDS011;55524;51.380;13.372;2023-05-20T08:39:59;23.02;;;14.25;;
68523;SDS011;55524;51.380;13.372;2023-05-20T08:42:25;25.08;;;15.82;;
68523;SDS011;55524;51.380;13.372;2023-05-20T08:44:52;22.38;;;14.55;;
68523;SDS011;55524;51.380;13.372;2023-05-20T08:47:20;21.55;;;14.82;;
68523;SDS011;55524;51.380;13.372;2023-05-20T08:49:47;22.52;;;14.73;;
68523;SDS011;55524;51.380;13.372;2023-05-20T08:52:20;24.02;;;14.23;;
68523;SDS011;55524;51.380;13.372;2023-05-20T08:54:47;25.27;;;14.50;;
68523;SDS011;55524;51.380;13.372;2023-05-20T08:57:16;30.33;;;15.00;;
68523;SDS011;55524;51.380;13.372;2023-05-20T08:59:44;22.92;;;14.57;;
68523;SDS011;55524;51.380;13.372;2023-05-20T09:02:11;22.33;;;14.77;;
68523;SDS011;55524;51.380;13.372;2023-05-20T09:04:38;24.33;;;15.15;;
68523;SDS011;55524;51.380;13.372;2023-05-20T09:07:04;22.58;;;14.82;;
68523;SDS011;55524;51.380;13.372;2023-05-20T09:09:32;22.70;;;15.23;;
68523;SDS011;55524;51.380;13.372;2023-05-20T09:12:00;19.77;;;14.23;;
68523;SDS011;55524;51.380;13.372;2023-05-20T09:14:28;25.13;;;15.43;;
68523;SDS011;55524;51.380;13.372;2023-05-20T09:16:54;22.00;;;14.68;;
68523;SDS011;55524;51.380;13.372;2023-05-20T09:19:21;21.75;;;14.82;;
68523;SDS011;55524;51.380;13.372;2023-05-20T09:21:50;21.85;;;14.65;;
68523;SDS011;55524;51.380;13.372;2023-05-20T09:24:24;20.08;;;12.73;;
68523;SDS011;55524;51.380;13.372;2023-05-20T09:26:51;23.33;;;13.55;;
68523;SDS011;55524;51.380;13.372;2023-05-20T09:29:17;18.80;;;12.70;;
68523;SDS011;55524;51.380;13.372;2023-05-20T09:31:45;19.48;;;13.02;;
68523;SDS011;55524;51.380;13.372;2023-05-20T09:34:13;19.95;;;13.15;;
68523;SDS011;55524;51.380;13.372;2023-05-20T09:36:40;17.10;;;11.50;;
68523;SDS011;55524;51.380;13.372;2023-05-20T09:39:11;18.02;;;12.32;;
68523;SDS011;55524;51.380;13.372;2023-05-20T09:42:22;18.95;;;11.10;;
68523;SDS011;55524;51.380;13.372;2023-05-20T09:44:40;18.67;;;11.70;;
68523;SDS011;55524;51.380;13.372;2023-05-20T09:47:09;18.88;;;11.43;;
68523;SDS011;55524;51.380;13.372;2023-05-20T09:49:36;34.08;;;14.15;;
68523;SDS011;55524;51.380;13.372;2023-05-20T09:52:04;18.85;;;11.90;;
68523;SDS011;55524;51.380;13.372;2023-05-20T09:54:31;17.83;;;12.48;;
68523;SDS011;55524;51.380;13.372;2023-05-20T09:56:59;111.60;;;20.90;;
68523;SDS011;55524;51.380;13.372;2023-05-20T09:59:29;21.50;;;13.15;;
68523;SDS011;55524;51.380;13.372;2023-05-20T10:01:56;18.17;;;12.30;;
68523;SDS011;55524;51.380;13.372;2023-05-20T10:04:23;19.25;;;11.95;;
68523;SDS011;55524;51.380;13.372;2023-05-20T10:07:09;19.77;;;11.98;;
68523;SDS011;55524;51.380;13.372;2023-05-20T10:12:26;25.42;;;13.05;;
68523;SDS011;55524;51.380;13.372;2023-05-20T10:15:06;33.05;;;13.07;;
68523;SDS011;55524;51.380;13.372;2023-05-20T10:20:48;18.30;;;12.18;;
68523;SDS011;55524;51.380;13.372;2023-05-20T10:23:27;22.00;;;12.88;;
68523;SDS011;55524;51.380;13.372;2023-05-20T10:25:55;18.20;;;11.27;;
68523;SDS011;55524;51.380;13.372;2023-05-20T10:28:32;22.33;;;12.93;;
68523;SDS011;55524;51.380;13.372;2023-05-20T10:31:14;43.45;;;13.68;;
68523;SDS011;55524;51.380;13.372;2023-05-20T10:33:42;20.73;;;13.23;;
68523;SDS011;55524;51.380;13.372;2023-05-20T10:36:20;20.88;;;12.38;;
68523;SDS011;55524;51.380;13.372;2023-05-20T10:38:54;21.40;;;13.32;;
68523;SDS011;55524;51.380;13.372;2023-05-20T10:41:24;18.05;;;10.77;;
68523;SDS011;55524;51.380;13.372;2023-05-20T10:44:01;22.38;;;12.50;;
68523;SDS011;55524;51.380;13.372;2023-05-20T10:46:29;24.75;;;12.90;;
68523;SDS011;55524;51.380;13.372;2023-05-20T10:48:57;19.17;;;12.45;;
68523;SDS011;55524;51.380;13.372;2023-05-20T10:51:23;19.08;;;12.05;;
68523;SDS011;55524;51.380;13.372;2023-05-20T10:53:56;19.25;;;12.43;;
68523;SDS011;55524;51.380;13.372;2023-05-20T10:56:24;32.40;;;13.82;;
68523;SDS011;55524;51.380;13.372;2023-05-20T10:58:51;18.58;;;12.68;;
68523;SDS011;55524;51.380;13.372;2023-05-20T11:01:22;18.48;;;11.77;;
68523;SDS011;55524;51.380;13.372;2023-05-20T11:03:50;23.67;;;12.18;;
68523;SDS011;55524;51.380;13.372;2023-05-20T11:06:24;22.00;;;12.82;;
68523;SDS011;55524;51.380;13.372;2023-05-20T11:08:52;27.48;;;12.43;;
68523;SDS011;55524;51.380;13.372;2023-05-20T11:11:20;25.52;;;12.90;;
68523;SDS011;55524;51.380;13.372;2023-05-20T11:13:50;22.30;;;12.55;;
68523;SDS011;55524;51.380;13.372;2023-05-20T11:16:17;17.83;;;11.98;;
68523;SDS011;55524;51.380;13.372;2023-05-20T11:18:47;17.33;;;12.13;;
68523;SDS011;55524;51.380;13.372;2023-05-20T11:21:14;16.73;;;11.52;;
68523;SDS011;55524;51.380;13.372;2023-05-20T11:23:40;23.85;;;11.90;;
68523;SDS011;55524;51.380;13.372;2023-05-20T11:26:07;21.13;;;12.18;;
68523;SDS011;55524;51.380;13.372;2023-05-20T11:28:34;18.63;;;12.38;;
68523;SDS011;55524;51.380;13.372;2023-05-20T11:31:00;23.60;;;12.10;;
68523;SDS011;55524;51.380;13.372;2023-05-20T11:33:29;16.30;;;11.93;;
68523;SDS011;55524;51.380;13.372;2023-05-20T11:35:55;15.40;;;11.93;;
68523;SDS011;55524;51.380;13.372;2023-05-20T11:38:22;16.40;;;12.07;;
68523;SDS011;55524;51.380;13.372;2023-05-20T11:40:50;17.55;;;11.98;;
68523;SDS011;55524;51.380;13.372;2023-05-20T11:43:18;36.13;;;13.07;;
68523;SDS011;55524;51.380;13.372;2023-05-20T11:45:52;21.08;;;11.77;;
68523;SDS011;55524;51.380;13.372;2023-05-20T11:48:22;20.85;;;12.25;;
68523;SDS011;55524;51.380;13.372;2023-05-20T11:50:48;20.85;;;12.82;;
68523;SDS011;55524;51.380;13.372;2023-05-20T11:53:17;17.90;;;12.63;;
68523;SDS011;55524;51.380;13.372;2023-05-20T11:55:48;16.60;;;12.10;;
68523;SDS011;55524;51.380;13.372;2023-05-20T11:58:29;17.63;;;12.02;;
68523;SDS011;55524;51.380;13.372;2023-05-20T12:00:57;17.92;;;11.82;;
68523;SDS011;55524;51.380;13.372;2023-05-20T12:03:23;18.77;;;11.30;;
68523;SDS011;55524;51.380;13.372;2023-05-20T12:05:51;15.20;;;11.52;;
68523;SDS011;55524;51.380;13.372;2023-05-20T12:08:17;19.08;;;11.98;;
68523;SDS011;55524;51.380;13.372;2023-05-20T12:10:44;20.45;;;11.48;;
68523;SDS011;55524;51.380;13.372;2023-05-20T12:13:10;16.42;;;11.05;;
68523;SDS011;55524;51.380;13.372;2023-05-20T12:15:37;15.85;;;10.80;;
68523;SDS011;55524;51.380;13.372;2023-05-20T12:18:04;20.02;;;12.23;;
68523;SDS011;55524;51.380;13.372;2023-05-20T12:20:31;15.02;;;11.15;;
68523;SDS011;55524;51.380;13.372;2023-05-20T12:22:58;16.40;;;11.05;;
68523;SDS011;55524;51.380;13.372;2023-05-20T12:25:25;14.15;;;10.60;;
68523;SDS011;55524;51.380;13.372;2023-05-20T12:27:52;25.23;;;11.63;;
68523;SDS011;55524;51.380;13.372;2023-05-20T12:30:20;18.15;;;10.57;;
68523;SDS011;55524;51.380;13.372;2023-05-20T12:32:48;17.13;;;10.50;;
68523;SDS011;55524;51.380;13.372;2023-05-20T12:35:15;15.05;;;10.30;;
68523;SDS011;55524;51.380;13.372;2023-05-20T12:37:46;19.73;;;11.27;;
68523;SDS011;55524;51.380;13.372;2023-05-20T12:40:12;15.57;;;9.85;;
68523;SDS011;55524;51.380;13.372;2023-05-20T12:42:39;16.42;;;10.68;;
68523;SDS011;55524;51.380;13.372;2023-05-20T12:45:06;15.23;;;10.82;;
68523;SDS011;55524;51.380;13.372;2023-05-20T12:47:34;15.82;;;10.68;;
68523;SDS011;55524;51.380;13.372;2023-05-20T12:50:02;12.23;;;9.70;;
68523;SDS011;55524;51.380;13.372;2023-05-20T12:52:29;12.18;;;9.60;;
68523;SDS011;55524;51.380;13.372;2023-05-20T12:54:55;15.23;;;9.73;;
68523;SDS011;55524;51.380;13.372;2023-05-20T12:57:22;12.25;;;9.05;;
68523;SDS011;55524;51.380;13.372;2023-05-20T12:59:49;12.02;;;8.48;;
68523;SDS011;55524;51.380;13.372;2023-05-20T13:02:15;11.98;;;8.77;;
68523;SDS011;55524;51.380;13.372;2023-05-20T13:04:42;17.42;;;9.18;;
68523;SDS011;55524;51.380;13.372;2023-05-20T13:07:08;14.23;;;8.90;;
68523;SDS011;55524;51.380;13.372;2023-05-20T13:09:34;11.95;;;8.23;;
68523;SDS011;55524;51.380;13.372;2023-05-20T13:12:01;17.13;;;8.75;;
68523;SDS011;55524;51.380;13.372;2023-05-20T13:14:27;9.75;;;7.60;;
68523;SDS011;55524;51.380;13.372;2023-05-20T13:16:53;14.52;;;8.68;;
68523;SDS011;55524;51.380;13.372;2023-05-20T13:19:20;9.43;;;7.70;;
68523;SDS011;55524;51.380;13.372;2023-05-20T13:21:48;11.07;;;7.30;;
68523;SDS011;55524;51.380;13.372;2023-05-20T13:24:15;15.68;;;7.57;;
68523;SDS011;55524;51.380;13.372;2023-05-20T13:26:41;12.07;;;7.32;;
68523;SDS011;55524;51.380;13.372;2023-05-20T13:29:09;11.07;;;7.38;;
68523;SDS011;55524;51.380;13.372;2023-05-20T13:31:36;12.20;;;8.38;;
68523;SDS011;55524;51.380;13.372;2023-05-20T13:34:03;10.02;;;7.70;;
68523;SDS011;55524;51.380;13.372;2023-05-20T13:36:30;8.88;;;7.03;;
68523;SDS011;55524;51.380;13.372;2023-05-20T13:38:56;11.68;;;7.18;;
68523;SDS011;55524;51.380;13.372;2023-05-20T13:41:23;12.95;;;7.53;;
68523;SDS011;55524;51.380;13.372;2023-05-20T13:43:50;10.85;;;7.47;;
68523;SDS011;55524;51.380;13.372;2023-05-20T13:46:17;8.38;;;7.18;;
68523;SDS011;55524;51.380;13.372;2023-05-20T13:48:43;11.15;;;7.18;;
68523;SDS011;55524;51.380;13.372;2023-05-20T13:51:10;7.85;;;6.97;;
68523;SDS011;55524;51.380;13.372;2023-05-20T13:53:37;7.57;;;6.80;;
68523;SDS011;55524;51.380;13.372;2023-05-20T13:56:03;10.05;;;6.93;;
68523;SDS011;55524;51.380;13.372;2023-05-20T13:58:30;12.07;;;7.00;;
68523;SDS011;55524;51.380;13.372;2023-05-20T14:00:57;7.45;;;6.65;;
68523;SDS011;55524;51.380;13.372;2023-05-20T14:03:24;12.05;;;7.03;;
68523;SDS011;55524;51.380;13.372;2023-05-20T14:05:50;10.57;;;7.38;;
68523;SDS011;55524;51.380;13.372;2023-05-20T14:08:17;9.32;;;6.95;;
68523;SDS011;55524;51.380;13.372;2023-05-20T14:10:43;9.02;;;6.88;;
68523;SDS011;55524;51.380;13.372;2023-05-20T14:13:09;13.02;;;7.55;;
68523;SDS011;55524;51.380;13.372;2023-05-20T14:15:35;11.23;;;7.32;;
68523;SDS011;55524;51.380;13.372;2023-05-20T14:18:02;13.13;;;6.75;;
68523;SDS011;55524;51.380;13.372;2023-05-20T14:20:28;8.07;;;6.43;;
68523;SDS011;55524;51.380;13.372;2023-05-20T14:22:55;9.85;;;7.10;;
68523;SDS011;55524;51.380;13.372;2023-05-20T14:25:21;10.95;;;7.40;;
68523;SDS011;55524;51.380;13.372;2023-05-20T14:27:48;10.00;;;7.22;;